sensor_id;sensor_type;location;lat;lon;timestamp;pressure;altitude;pressure_sealevel;temperature
75353;BMP280;76704;51.574;7.088;2024-03-08T00:01:07;49449.97;;;7.66
75353;BMP280;76704;51.574;7.088;2024-03-08T00:03:38;49053.59;;;7.61
75353;BMP280;76704;51.574;7.088;2024-03-08T00:06:08;49006.47;;;7.54
75353;BMP280;76704;51.574;7.088;2024-03-08T00:08:37;48854.34;;;7.52
75353;BMP280;76704;51.574;7.088;2024-03-08T00:11:06;49018.63;;;7.53
75353;BMP280;76704;51.574;7.088;2024-03-08T00:13:39;48989.59;;;7.53
75353;BMP280;76704;51.574;7.088;2024-03-08T00:16:07;49140.31;;;7.53
75353;BMP280;76704;51.574;7.088;2024-03-08T00:18:38;48994.72;;;7.49
75353;BMP280;76704;51.574;7.088;2024-03-08T00:21:10;49176.03;;;7.48
75353;BMP280;76704;51.574;7.088;2024-03-08T01:03:57;47382.81;;;6.92
75353;BMP280;76704;51.574;7.088;2024-03-08T01:06:27;47446.97;;;6.90
75353;BMP280;76704;51.574;7.088;2024-03-08T01:08:56;47391.00;;;6.89
75353;BMP280;76704;51.574;7.088;2024-03-08T01:11:32;47492.44;;;6.91
75353;BMP280;76704;51.574;7.088;2024-03-08T01:14:07;47683.78;;;6.93
75353;BMP280;76704;51.574;7.088;2024-03-08T01:16:38;47853.78;;;6.95
75353;BMP280;76704;51.574;7.088;2024-03-08T01:19:14;47556.94;;;6.89
75353;BMP280;76704;51.574;7.088;2024-03-08T01:21:45;47745.31;;;6.91
75353;BMP280;76704;51.574;7.088;2024-03-08T01:24:16;47351.41;;;6.84
75353;BMP280;76704;51.574;7.088;2024-03-08T01:26:46;47750.75;;;6.83
75353;BMP280;76704;51.574;7.088;2024-03-08T01:29:17;47795.97;;;6.88
75353;BMP280;76704;51.574;7.088;2024-03-08T01:31:45;47747.88;;;6.87
75353;BMP280;76704;51.574;7.088;2024-03-08T01:34:20;47430.69;;;6.81
75353;BMP280;76704;51.574;7.088;2024-03-08T01:36:50;47734.03;;;6.86
75353;BMP280;76704;51.574;7.088;2024-03-08T01:39:19;47609.72;;;6.77
75353;BMP280;76704;51.574;7.088;2024-03-08T01:41:50;47506.66;;;6.76
75353;BMP280;76704;51.574;7.088;2024-03-08T01:44:21;47563.56;;;6.75
75353;BMP280;76704;51.574;7.088;2024-03-08T01:46:50;47516.53;;;6.75
75353;BMP280;76704;51.574;7.088;2024-03-08T01:49:21;47595.88;;;6.76
75353;BMP280;76704;51.574;7.088;2024-03-08T01:51:57;47488.50;;;6.73
75353;BMP280;76704;51.574;7.088;2024-03-08T01:54:28;47618.81;;;6.71
75353;BMP280;76704;51.574;7.088;2024-03-08T01:57:00;47372.91;;;6.69
75353;BMP280;76704;51.574;7.088;2024-03-08T01:59:31;47282.38;;;6.68
75353;BMP280;76704;51.574;7.088;2024-03-08T02:02:01;47265.91;;;6.67
75353;BMP280;76704;51.574;7.088;2024-03-08T02:04:33;47292.50;;;6.63
75353;BMP280;76704;51.574;7.088;2024-03-08T02:07:01;47430.09;;;6.64
75353;BMP280;76704;51.574;7.088;2024-03-08T02:09:40;47352.38;;;6.62
75353;BMP280;76704;51.574;7.088;2024-03-08T02:12:10;47332.94;;;6.61
75353;BMP280;76704;51.574;7.088;2024-03-08T02:14:41;47248.97;;;6.57
75353;BMP280;76704;51.574;7.088;2024-03-08T02:17:12;47141.03;;;6.57
75353;BMP280;76704;51.574;7.088;2024-03-08T02:19:45;47192.69;;;6.55
75353;BMP280;76704;51.574;7.088;2024-03-08T02:22:25;47250.94;;;6.56
75353;BMP280;76704;51.574;7.088;2024-03-08T02:24:53;47210.09;;;6.54
75353;BMP280;76704;51.574;7.088;2024-03-08T02:27:24;47089.59;;;6.47
75353;BMP280;76704;51.574;7.088;2024-03-08T02:29:57;47066.25;;;6.47
75353;BMP280;76704;51.574;7.088;2024-03-08T02:32:28;47130.41;;;6.49
75353;BMP280;76704;51.574;7.088;2024-03-08T02:35:05;47081.66;;;6.43
75353;BMP280;76704;51.574;7.088;2024-03-08T02:37:34;47062.28;;;6.45
75353;BMP280;76704;51.574;7.088;2024-03-08T02:40:04;46911.25;;;6.44
75353;BMP280;76704;51.574;7.088;2024-03-08T02:42:35;47025.38;;;6.41
75353;BMP280;76704;51.574;7.088;2024-03-08T02:45:04;47063.25;;;6.43
75353;BMP280;76704;51.574;7.088;2024-03-08T02:47:43;46922.72;;;6.37
75353;BMP280;76704;51.574;7.088;2024-03-08T02:50:13;47067.50;;;6.41
75353;BMP280;76704;51.574;7.088;2024-03-08T02:52:47;47005.91;;;6.36
75353;BMP280;76704;51.574;7.088;2024-03-08T02:55:15;47004.28;;;6.37
75353;BMP280;76704;51.574;7.088;2024-03-08T02:57:45;46885.53;;;6.32
75353;BMP280;76704;51.574;7.088;2024-03-08T03:00:23;47007.88;;;6.34
75353;BMP280;76704;51.574;7.088;2024-03-08T03:03:03;46806.25;;;6.32
75353;BMP280;76704;51.574;7.088;2024-03-08T03:05:35;46757.56;;;6.30
75353;BMP280;76704;51.574;7.088;2024-03-08T03:08:03;46742.41;;;6.27
75353;BMP280;76704;51.574;7.088;2024-03-08T03:10:39;46660.84;;;6.27
75353;BMP280;76704;51.574;7.088;2024-03-08T03:13:08;46795.34;;;6.27
75353;BMP280;76704;51.574;7.088;2024-03-08T03:15:46;46605.25;;;6.22
75353;BMP280;76704;51.574;7.088;2024-03-08T03:18:20;46800.91;;;6.24
75353;BMP280;76704;51.574;7.088;2024-03-08T03:20:55;46732.84;;;6.20
75353;BMP280;76704;51.574;7.088;2024-03-08T03:23:24;46731.19;;;6.22
75353;BMP280;76704;51.574;7.088;2024-03-08T03:25:54;46641.75;;;6.18
75353;BMP280;76704;51.574;7.088;2024-03-08T03:28:28;46564.16;;;6.16
75353;BMP280;76704;51.574;7.088;2024-03-08T03:30:57;46466.16;;;6.15
75353;BMP280;76704;51.574;7.088;2024-03-08T03:33:38;46223.56;;;6.09
75353;BMP280;76704;51.574;7.088;2024-03-08T03:36:10;46522.03;;;6.12
75353;BMP280;76704;51.574;7.088;2024-03-08T03:38:41;46333.69;;;6.09
75353;BMP280;76704;51.574;7.088;2024-03-08T03:41:10;46407.97;;;6.10
75353;BMP280;76704;51.574;7.088;2024-03-08T03:43:40;45928.47;;;6.00
75353;BMP280;76704;51.574;7.088;2024-03-08T03:46:11;46330.72;;;6.04
75353;BMP280;76704;51.574;7.088;2024-03-08T03:48:39;46274.19;;;6.02
75353;BMP280;76704;51.574;7.088;2024-03-08T03:51:09;46369.19;;;6.03
75353;BMP280;76704;51.574;7.088;2024-03-08T03:53:40;46374.13;;;6.02
75353;BMP280;76704;51.574;7.088;2024-03-08T03:56:11;46373.13;;;6.01
75353;BMP280;76704;51.574;7.088;2024-03-08T03:58:39;46298.84;;;6.00
75353;BMP280;76704;51.574;7.088;2024-03-08T04:01:09;46170.03;;;5.96
75353;BMP280;76704;51.574;7.088;2024-03-08T04:03:41;46398.44;;;5.99
75353;BMP280;76704;51.574;7.088;2024-03-08T04:06:13;46391.53;;;5.97
75353;BMP280;76704;51.574;7.088;2024-03-08T04:08:47;46125.34;;;5.92
75353;BMP280;76704;51.574;7.088;2024-03-08T04:11:17;46180.22;;;5.91
75353;BMP280;76704;51.574;7.088;2024-03-08T04:13:48;46242.00;;;5.93
75353;BMP280;76704;51.574;7.088;2024-03-08T04:16:18;45957.16;;;5.88
75353;BMP280;76704;51.574;7.088;2024-03-08T04:18:59;46110.25;;;5.89
75353;BMP280;76704;51.574;7.088;2024-03-08T04:21:30;46191.06;;;5.88
75353;BMP280;76704;51.574;7.088;2024-03-08T04:24:02;46210.78;;;5.86
75353;BMP280;76704;51.574;7.088;2024-03-08T04:26:30;46147.03;;;5.84
75353;BMP280;76704;51.574;7.088;2024-03-08T04:28:58;46145.06;;;5.86
75353;BMP280;76704;51.574;7.088;2024-03-08T04:31:28;46023.22;;;5.80
75353;BMP280;76704;51.574;7.088;2024-03-08T04:33:59;46106.31;;;5.82
75353;BMP280;76704;51.574;7.088;2024-03-08T04:36:30;46076.75;;;5.81
75353;BMP280;76704;51.574;7.088;2024-03-08T04:39:02;46041.94;;;5.80
75353;BMP280;76704;51.574;7.088;2024-03-08T04:41:38;45950.31;;;5.73
75353;BMP280;76704;51.574;7.088;2024-03-08T04:44:15;46016.31;;;5.77
75353;BMP280;76704;51.574;7.088;2024-03-08T04:46:45;45814.00;;;5.73
75353;BMP280;76704;51.574;7.088;2024-03-08T04:49:16;45826.16;;;5.72
75353;BMP280;76704;51.574;7.088;2024-03-08T04:51:46;45778.88;;;5.72
75353;BMP280;76704;51.574;7.088;2024-03-08T04:54:16;45930.94;;;5.71
75353;BMP280;76704;51.574;7.088;2024-03-08T04:56:46;45784.47;;;5.68
75353;BMP280;76704;51.574;7.088;2024-03-08T04:59:16;45882.03;;;5.69
75353;BMP280;76704;51.574;7.088;2024-03-08T05:01:46;45826.53;;;5.68
75353;BMP280;76704;51.574;7.088;2024-03-08T05:04:19;45722.75;;;5.66
75353;BMP280;76704;51.574;7.088;2024-03-08T05:06:48;45778.63;;;5.63
75353;BMP280;76704;51.574;7.088;2024-03-08T05:09:16;45829.19;;;5.64
75353;BMP280;76704;51.574;7.088;2024-03-08T05:11:47;45898.78;;;5.66
75353;BMP280;76704;51.574;7.088;2024-03-08T05:14:17;45773.69;;;5.64
75353;BMP280;76704;51.574;7.088;2024-03-08T05:16:48;45611.19;;;5.60
75353;BMP280;76704;51.574;7.088;2024-03-08T05:19:20;45454.28;;;5.57
75353;BMP280;76704;51.574;7.088;2024-03-08T05:21:51;45561.97;;;5.57
75353;BMP280;76704;51.574;7.088;2024-03-08T05:24:21;45458.28;;;5.51
75353;BMP280;76704;51.574;7.088;2024-03-08T05:26:50;45340.09;;;5.51
75353;BMP280;76704;51.574;7.088;2024-03-08T05:29:18;45400.50;;;5.51
75353;BMP280;76704;51.574;7.088;2024-03-08T05:31:49;45289.25;;;5.49
75353;BMP280;76704;51.574;7.088;2024-03-08T05:34:21;45079.63;;;5.42
75353;BMP280;76704;51.574;7.088;2024-03-08T05:36:52;45191.19;;;5.44
75353;BMP280;76704;51.574;7.088;2024-03-08T05:39:22;45301.47;;;5.44
75353;BMP280;76704;51.574;7.088;2024-03-08T05:41:54;45302.13;;;5.45
75353;BMP280;76704;51.574;7.088;2024-03-08T05:44:23;45348.75;;;5.44
75353;BMP280;76704;51.574;7.088;2024-03-08T05:46:53;45188.97;;;5.40
75353;BMP280;76704;51.574;7.088;2024-03-08T05:49:26;45414.41;;;5.44
75353;BMP280;76704;51.574;7.088;2024-03-08T05:51:53;45367.13;;;5.44
75353;BMP280;76704;51.574;7.088;2024-03-08T05:54:23;45200.53;;;5.33
75353;BMP280;76704;51.574;7.088;2024-03-08T05:56:53;45172.63;;;5.35
75353;BMP280;76704;51.574;7.088;2024-03-08T05:59:27;45079.47;;;5.33
75353;BMP280;76704;51.574;7.088;2024-03-08T06:01:57;45138.19;;;5.34
75353;BMP280;76704;51.574;7.088;2024-03-08T06:04:26;45216.31;;;5.33
75353;BMP280;76704;51.574;7.088;2024-03-08T06:07:02;45211.06;;;5.33
75353;BMP280;76704;51.574;7.088;2024-03-08T06:09:31;45266.81;;;5.34
75353;BMP280;76704;51.574;7.088;2024-03-08T06:11:59;45481.78;;;5.34
75353;BMP280;76704;51.574;7.088;2024-03-08T06:14:29;45389.56;;;5.33
75353;BMP280;76704;51.574;7.088;2024-03-08T06:16:58;45357.75;;;5.33
75353;BMP280;76704;51.574;7.088;2024-03-08T06:19:28;45344.28;;;5.32
75353;BMP280;76704;51.574;7.088;2024-03-08T06:21:58;45304.34;;;5.27
75353;BMP280;76704;51.574;7.088;2024-03-08T06:24:26;45126.47;;;5.28
75353;BMP280;76704;51.574;7.088;2024-03-08T06:26:56;45470.97;;;5.33
75353;BMP280;76704;51.574;7.088;2024-03-08T06:29:24;45508.09;;;5.30
75353;BMP280;76704;51.574;7.088;2024-03-08T06:31:52;45515.34;;;5.29
75353;BMP280;76704;51.574;7.088;2024-03-08T06:34:32;45360.13;;;5.28
75353;BMP280;76704;51.574;7.088;2024-03-08T06:37:02;45418.34;;;5.17
75353;BMP280;76704;51.574;7.088;2024-03-08T06:39:32;45333.22;;;5.27
75353;BMP280;76704;51.574;7.088;2024-03-08T06:42:01;45674.78;;;5.32
75353;BMP280;76704;51.574;7.088;2024-03-08T06:44:39;45720.41;;;5.33
75353;BMP280;76704;51.574;7.088;2024-03-08T06:47:16;45755.88;;;5.31
75353;BMP280;76704;51.574;7.088;2024-03-08T06:49:50;45812.63;;;5.34
75353;BMP280;76704;51.574;7.088;2024-03-08T06:52:23;45896.34;;;5.33
75353;BMP280;76704;51.574;7.088;2024-03-08T06:55:05;45969.22;;;5.37
75353;BMP280;76704;51.574;7.088;2024-03-08T06:57:34;46175.38;;;5.39
75353;BMP280;76704;51.574;7.088;2024-03-08T07:00:02;45959.75;;;5.22
75353;BMP280;76704;51.574;7.088;2024-03-08T07:02:30;46246.94;;;5.40
75353;BMP280;76704;51.574;7.088;2024-03-08T07:05:03;46169.47;;;5.38
75353;BMP280;76704;51.574;7.088;2024-03-08T07:07:32;46566.78;;;5.43
75353;BMP280;76704;51.574;7.088;2024-03-08T07:10:03;46666.63;;;5.47
75353;BMP280;76704;51.574;7.088;2024-03-08T07:12:32;46857.09;;;5.45
75353;BMP280;76704;51.574;7.088;2024-03-08T07:15:02;47056.88;;;5.53
75353;BMP280;76704;51.574;7.088;2024-03-08T07:17:34;47080.13;;;5.48
75353;BMP280;76704;51.574;7.088;2024-03-08T07:20:03;47321.69;;;5.56
75353;BMP280;76704;51.574;7.088;2024-03-08T07:22:43;47233.16;;;5.45
75353;BMP280;76704;51.574;7.088;2024-03-08T07:25:20;47355.19;;;5.55
75353;BMP280;76704;51.574;7.088;2024-03-08T07:28:00;47623.47;;;5.63
75353;BMP280;76704;51.574;7.088;2024-03-08T07:30:32;47819.72;;;5.66
75353;BMP280;76704;51.574;7.088;2024-03-08T07:33:17;47885.78;;;5.66
75353;BMP280;76704;51.574;7.088;2024-03-08T07:35:53;48122.22;;;5.70
75353;BMP280;76704;51.574;7.088;2024-03-08T07:38:23;48335.63;;;5.63
75353;BMP280;76704;51.574;7.088;2024-03-08T07:40:51;48674.06;;;5.84
75353;BMP280;76704;51.574;7.088;2024-03-08T07:43:22;48946.78;;;5.87
75353;BMP280;76704;51.574;7.088;2024-03-08T07:45:51;49042.38;;;5.92
75353;BMP280;76704;51.574;7.088;2024-03-08T07:48:23;49284.34;;;5.96
75353;BMP280;76704;51.574;7.088;2024-03-08T07:50:54;49506.69;;;6.01
75353;BMP280;76704;51.574;7.088;2024-03-08T07:53:27;49695.38;;;6.04
75353;BMP280;76704;51.574;7.088;2024-03-08T07:55:55;49822.47;;;6.05
75353;BMP280;76704;51.574;7.088;2024-03-08T07:58:26;50073.78;;;6.14
75353;BMP280;76704;51.574;7.088;2024-03-08T08:00:56;50118.81;;;6.18
75353;BMP280;76704;51.574;7.088;2024-03-08T08:03:26;50355.72;;;6.22
75353;BMP280;76704;51.574;7.088;2024-03-08T08:06:03;50410.22;;;6.24
75353;BMP280;76704;51.574;7.088;2024-03-08T08:08:31;50768.06;;;6.27
75353;BMP280;76704;51.574;7.088;2024-03-08T08:11:10;51002.34;;;6.38
75353;BMP280;76704;51.574;7.088;2024-03-08T08:13:47;51075.72;;;6.41
75353;BMP280;76704;51.574;7.088;2024-03-08T08:16:18;51295.53;;;6.46
75353;BMP280;76704;51.574;7.088;2024-03-08T08:18:49;51466.09;;;6.49
75353;BMP280;76704;51.574;7.088;2024-03-08T08:21:18;51865.25;;;6.57
75353;BMP280;76704;51.574;7.088;2024-03-08T08:23:49;51924.78;;;6.59
75353;BMP280;76704;51.574;7.088;2024-03-08T08:26:20;52134.97;;;6.62
75353;BMP280;76704;51.574;7.088;2024-03-08T08:28:49;52309.84;;;6.70
75353;BMP280;76704;51.574;7.088;2024-03-08T08:31:18;52407.44;;;6.70
75353;BMP280;76704;51.574;7.088;2024-03-08T08:33:52;52828.88;;;6.80
75353;BMP280;76704;51.574;7.088;2024-03-08T08:36:27;53075.94;;;6.89
75353;BMP280;76704;51.574;7.088;2024-03-08T08:38:59;53440.34;;;6.96
75353;BMP280;76704;51.574;7.088;2024-03-08T08:41:29;53804.47;;;7.03
75353;BMP280;76704;51.574;7.088;2024-03-08T08:43:57;54135.06;;;7.07
75353;BMP280;76704;51.574;7.088;2024-03-08T08:46:42;54284.00;;;7.15
75353;BMP280;76704;51.574;7.088;2024-03-08T08:49:12;54537.88;;;7.22
75353;BMP280;76704;51.574;7.088;2024-03-08T08:51:48;54738.97;;;7.29
75353;BMP280;76704;51.574;7.088;2024-03-08T08:54:17;55124.78;;;7.36
75353;BMP280;76704;51.574;7.088;2024-03-08T08:56:45;55366.47;;;7.44
75353;BMP280;76704;51.574;7.088;2024-03-08T08:59:15;55702.25;;;7.51
75353;BMP280;76704;51.574;7.088;2024-03-08T09:01:50;56001.53;;;7.58
75353;BMP280;76704;51.574;7.088;2024-03-08T09:04:24;56277.09;;;7.65
75353;BMP280;76704;51.574;7.088;2024-03-08T09:06:52;56511.63;;;7.74
75353;BMP280;76704;51.574;7.088;2024-03-08T09:09:22;56769.97;;;7.76
75353;BMP280;76704;51.574;7.088;2024-03-08T09:11:49;56905.88;;;7.83
75353;BMP280;76704;51.574;7.088;2024-03-08T09:14:20;57382.97;;;7.91
75353;BMP280;76704;51.574;7.088;2024-03-08T09:16:53;57740.84;;;8.04
75353;BMP280;76704;51.574;7.088;2024-03-08T09:19:21;57978.50;;;8.12
75353;BMP280;76704;51.574;7.088;2024-03-08T09:21:54;58297.97;;;8.21
75353;BMP280;76704;51.574;7.088;2024-03-08T09:24:21;58499.63;;;8.27
75353;BMP280;76704;51.574;7.088;2024-03-08T09:26:53;58860.44;;;8.34
75353;BMP280;76704;51.574;7.088;2024-03-08T09:29:28;59368.41;;;8.48
75353;BMP280;76704;51.574;7.088;2024-03-08T09:31:57;59622.53;;;8.54
75353;BMP280;76704;51.574;7.088;2024-03-08T09:34:25;59917.38;;;8.63
75353;BMP280;76704;51.574;7.088;2024-03-08T09:37:06;60163.69;;;8.72
75353;BMP280;76704;51.574;7.088;2024-03-08T09:39:40;60273.41;;;8.73
75353;BMP280;76704;51.574;7.088;2024-03-08T09:42:17;60653.94;;;8.86
75353;BMP280;76704;51.574;7.088;2024-03-08T09:44:46;60881.94;;;8.95
75353;BMP280;76704;51.574;7.088;2024-03-08T09:47:18;61327.88;;;9.07
75353;BMP280;76704;51.574;7.088;2024-03-08T09:49:51;61579.06;;;9.14
75353;BMP280;76704;51.574;7.088;2024-03-08T09:52:25;62019.13;;;9.25
75353;BMP280;76704;51.574;7.088;2024-03-08T09:54:57;62236.00;;;9.33
75353;BMP280;76704;51.574;7.088;2024-03-08T09:57:27;62356.31;;;9.39
75353;BMP280;76704;51.574;7.088;2024-03-08T09:59:57;62668.56;;;9.47
75353;BMP280;76704;51.574;7.088;2024-03-08T10:02:50;63063.19;;;9.59
75353;BMP280;76704;51.574;7.088;2024-03-08T10:05:30;63380.25;;;9.51
75353;BMP280;76704;51.574;7.088;2024-03-08T10:08:02;63703.00;;;9.75
75353;BMP280;76704;51.574;7.088;2024-03-08T10:10:37;63987.41;;;9.83
75353;BMP280;76704;51.574;7.088;2024-03-08T10:13:09;64156.19;;;9.93
75353;BMP280;76704;51.574;7.088;2024-03-08T10:15:37;64492.59;;;10.00
75353;BMP280;76704;51.574;7.088;2024-03-08T10:18:10;64819.38;;;10.13
75353;BMP280;76704;51.574;7.088;2024-03-08T10:20:43;65119.94;;;10.24
75353;BMP280;76704;51.574;7.088;2024-03-08T10:23:21;65495.00;;;10.31
75353;BMP280;76704;51.574;7.088;2024-03-08T10:25:53;65846.00;;;10.41
75353;BMP280;76704;51.574;7.088;2024-03-08T10:28:23;66193.50;;;10.51
75353;BMP280;76704;51.574;7.088;2024-03-08T10:31:02;66474.75;;;10.63
75353;BMP280;76704;51.574;7.088;2024-03-08T10:33:29;66763.53;;;10.69
75353;BMP280;76704;51.574;7.088;2024-03-08T10:35:59;67164.44;;;10.83
75353;BMP280;76704;51.574;7.088;2024-03-08T10:38:31;67476.66;;;10.94
75353;BMP280;76704;51.574;7.088;2024-03-08T10:41:05;67809.00;;;11.00
75353;BMP280;76704;51.574;7.088;2024-03-08T10:43:58;68147.94;;;11.16
75353;BMP280;76704;51.574;7.088;2024-03-08T10:49:17;69031.94;;;11.42
75353;BMP280;76704;51.574;7.088;2024-03-08T10:51:52;69579.13;;;11.57
75353;BMP280;76704;51.574;7.088;2024-03-08T10:54:28;70305.38;;;11.74
75353;BMP280;76704;51.574;7.088;2024-03-08T10:56:59;70917.56;;;11.94
75353;BMP280;76704;51.574;7.088;2024-03-08T10:59:34;71828.72;;;12.12
75353;BMP280;76704;51.574;7.088;2024-03-08T11:02:05;72909.22;;;12.38
75353;BMP280;76704;51.574;7.088;2024-03-08T11:04:48;73904.06;;;12.65
75353;BMP280;76704;51.574;7.088;2024-03-08T11:07:19;74992.00;;;12.92
75353;BMP280;76704;51.574;7.088;2024-03-08T11:09:49;76453.38;;;13.28
75353;BMP280;76704;51.574;7.088;2024-03-08T11:12:25;77558.94;;;13.61
75353;BMP280;76704;51.574;7.088;2024-03-08T11:15:11;79121.00;;;13.96
75353;BMP280;76704;51.574;7.088;2024-03-08T11:17:50;80389.66;;;14.36
75353;BMP280;76704;51.574;7.088;2024-03-08T11:20:23;81701.41;;;14.72
75353;BMP280;76704;51.574;7.088;2024-03-08T11:23:00;82947.72;;;15.15
75353;BMP280;76704;51.574;7.088;2024-03-08T11:25:32;84346.59;;;15.55
75353;BMP280;76704;51.574;7.088;2024-03-08T11:33:46;88733.94;;;16.98
75353;BMP280;76704;51.574;7.088;2024-03-08T11:36:22;89961.03;;;17.42
75353;BMP280;76704;51.574;7.088;2024-03-08T11:39:00;91135.84;;;17.88
75353;BMP280;76704;51.574;7.088;2024-03-08T11:41:37;92074.81;;;18.29
75353;BMP280;76704;51.574;7.088;2024-03-08T11:44:08;92767.44;;;18.65
75353;BMP280;76704;51.574;7.088;2024-03-08T11:46:45;93770.06;;;19.10
75353;BMP280;76704;51.574;7.088;2024-03-08T11:49:18;94824.44;;;19.49
75353;BMP280;76704;51.574;7.088;2024-03-08T11:51:57;95151.06;;;19.83
75353;BMP280;76704;51.574;7.088;2024-03-08T11:54:30;95914.63;;;20.25
75353;BMP280;76704;51.574;7.088;2024-03-08T11:56:59;96597.81;;;20.60
75353;BMP280;76704;51.574;7.088;2024-03-08T11:59:34;97174.22;;;20.95
75353;BMP280;76704;51.574;7.088;2024-03-08T12:02:07;97792.69;;;21.31
75353;BMP280;76704;51.574;7.088;2024-03-08T12:04:41;98467.63;;;21.68
75353;BMP280;76704;51.574;7.088;2024-03-08T12:07:14;98844.63;;;22.00
75353;BMP280;76704;51.574;7.088;2024-03-08T12:10:22;99340.63;;;22.40
75353;BMP280;76704;51.574;7.088;2024-03-08T12:12:58;99955.72;;;22.76
75353;BMP280;76704;51.574;7.088;2024-03-08T12:15:42;100264.28;;;23.06
75353;BMP280;76704;51.574;7.088;2024-03-08T12:18:15;100292.88;;;23.26
75353;BMP280;76704;51.574;7.088;2024-03-08T12:20:43;100850.03;;;23.61
75353;BMP280;76704;51.574;7.088;2024-03-08T12:23:24;101064.66;;;23.85
75353;BMP280;76704;51.574;7.088;2024-03-08T12:25:55;101835.25;;;24.20
75353;BMP280;76704;51.574;7.088;2024-03-08T12:28:26;102288.59;;;24.51
75353;BMP280;76704;51.574;7.088;2024-03-08T12:30:54;102479.53;;;24.76
75353;BMP280;76704;51.574;7.088;2024-03-08T12:33:27;102113.72;;;24.94
75353;BMP280;76704;51.574;7.088;2024-03-08T12:35:55;102886.03;;;25.23
75353;BMP280;76704;51.574;7.088;2024-03-08T12:38:29;103196.34;;;25.48
75353;BMP280;76704;51.574;7.088;2024-03-08T12:40:59;103756.47;;;25.79
75353;BMP280;76704;51.574;7.088;2024-03-08T12:43:29;104008.13;;;26.02
75353;BMP280;76704;51.574;7.088;2024-03-08T12:46:04;103621.91;;;26.10
75353;BMP280;76704;51.574;7.088;2024-03-08T12:48:35;103997.09;;;26.38
75353;BMP280;76704;51.574;7.088;2024-03-08T18:45:20;57152.22;;;14.64
75353;BMP280;76704;51.574;7.088;2024-03-08T18:47:51;56910.72;;;14.53
75353;BMP280;76704;51.574;7.088;2024-03-08T18:50:20;56167.00;;;14.37
75353;BMP280;76704;51.574;7.088;2024-03-08T18:52:48;56702.47;;;14.34
75353;BMP280;76704;51.574;7.088;2024-03-08T18:55:20;56582.16;;;14.27
75353;BMP280;76704;51.574;7.088;2024-03-08T18:57:56;56619.38;;;14.17
75353;BMP280;76704;51.574;7.088;2024-03-08T19:00:34;56525.22;;;14.13
75353;BMP280;76704;51.574;7.088;2024-03-08T19:03:17;56324.19;;;14.03
75353;BMP280;76704;51.574;7.088;2024-03-08T19:05:45;55948.72;;;13.91
75353;BMP280;76704;51.574;7.088;2024-03-08T19:08:15;55748.13;;;13.77
75353;BMP280;76704;51.574;7.088;2024-03-08T19:10:48;55178.34;;;13.62
75353;BMP280;76704;51.574;7.088;2024-03-08T19:13:18;55609.84;;;13.64
75353;BMP280;76704;51.574;7.088;2024-03-08T19:15:49;55294.38;;;13.54
75353;BMP280;76704;51.574;7.088;2024-03-08T19:18:23;55438.13;;;13.53
75353;BMP280;76704;51.574;7.088;2024-03-08T19:20:59;55288.63;;;13.43
75353;BMP280;76704;51.574;7.088;2024-03-08T19:23:28;55045.09;;;13.35
75353;BMP280;76704;51.574;7.088;2024-03-08T19:26:10;55117.31;;;13.29
75353;BMP280;76704;51.574;7.088;2024-03-08T19:28:44;55038.13;;;13.20
75353;BMP280;76704;51.574;7.088;2024-03-08T19:31:15;54839.78;;;13.15
75353;BMP280;76704;51.574;7.088;2024-03-08T19:33:47;54555.97;;;13.03
75353;BMP280;76704;51.574;7.088;2024-03-08T19:36:21;54697.22;;;13.00
75353;BMP280;76704;51.574;7.088;2024-03-08T19:38:54;54578.22;;;12.94
75353;BMP280;76704;51.574;7.088;2024-03-08T19:41:27;54411.94;;;12.86
75353;BMP280;76704;51.574;7.088;2024-03-08T19:43:56;54535.88;;;12.77
75353;BMP280;76704;51.574;7.088;2024-03-08T19:46:26;54319.19;;;12.76
75353;BMP280;76704;51.574;7.088;2024-03-08T19:48:58;54381.91;;;12.71
75353;BMP280;76704;51.574;7.088;2024-03-08T19:51:36;54390.97;;;12.69
75353;BMP280;76704;51.574;7.088;2024-03-08T19:54:11;54368.41;;;12.64
75353;BMP280;76704;51.574;7.088;2024-03-08T19:56:51;54111.59;;;12.52
75353;BMP280;76704;51.574;7.088;2024-03-08T19:59:21;54158.03;;;12.54
75353;BMP280;76704;51.574;7.088;2024-03-08T20:01:52;53923.03;;;12.43
75353;BMP280;76704;51.574;7.088;2024-03-08T20:04:26;53952.66;;;12.40
75353;BMP280;76704;51.574;7.088;2024-03-08T20:07:06;53828.91;;;12.34
75353;BMP280;76704;51.574;7.088;2024-03-08T20:09:41;53912.97;;;12.33
75353;BMP280;76704;51.574;7.088;2024-03-08T20:12:13;53788.06;;;12.26
75353;BMP280;76704;51.574;7.088;2024-03-08T20:14:45;53834.09;;;12.24
75353;BMP280;76704;51.574;7.088;2024-03-08T20:17:18;53819.47;;;12.15
75353;BMP280;76704;51.574;7.088;2024-03-08T20:19:48;53244.41;;;12.08
75353;BMP280;76704;51.574;7.088;2024-03-08T20:22:20;53141.72;;;11.99
75353;BMP280;76704;51.574;7.088;2024-03-08T20:24:48;53306.69;;;11.99
75353;BMP280;76704;51.574;7.088;2024-03-08T20:27:16;53585.41;;;12.01
75353;BMP280;76704;51.574;7.088;2024-03-08T20:29:56;53544.69;;;11.97
75353;BMP280;76704;51.574;7.088;2024-03-08T20:32:28;53471.25;;;11.91
75353;BMP280;76704;51.574;7.088;2024-03-08T20:35:01;52966.06;;;11.81
75353;BMP280;76704;51.574;7.088;2024-03-08T20:37:28;53160.94;;;11.71
75353;BMP280;76704;51.574;7.088;2024-03-08T20:39:58;53262.06;;;11.75
75353;BMP280;76704;51.574;7.088;2024-03-08T20:42:27;53115.72;;;11.71
75353;BMP280;76704;51.574;7.088;2024-03-08T20:44:56;53105.06;;;11.68
75353;BMP280;76704;51.574;7.088;2024-03-08T20:47:28;53089.47;;;11.65
75353;BMP280;76704;51.574;7.088;2024-03-08T20:50:10;53102.38;;;11.64
75353;BMP280;76704;51.574;7.088;2024-03-08T20:52:45;53008.88;;;11.57
75353;BMP280;76704;51.574;7.088;2024-03-08T20:55:16;53033.56;;;11.50
75353;BMP280;76704;51.574;7.088;2024-03-08T20:57:52;52907.81;;;11.42
75353;BMP280;76704;51.574;7.088;2024-03-08T21:00:23;52823.88;;;11.44
75353;BMP280;76704;51.574;7.088;2024-03-08T21:03:18;52877.81;;;11.41
75353;BMP280;76704;51.574;7.088;2024-03-08T21:05:49;52800.34;;;11.37
75353;BMP280;76704;51.574;7.088;2024-03-08T21:08:29;52609.72;;;11.31
75353;BMP280;76704;51.574;7.088;2024-03-08T21:11:00;52689.84;;;11.32
75353;BMP280;76704;51.574;7.088;2024-03-08T21:13:28;52843.59;;;11.27
75353;BMP280;76704;51.574;7.088;2024-03-08T21:16:02;52791.22;;;11.29
75353;BMP280;76704;51.574;7.088;2024-03-08T21:18:35;52624.91;;;11.23
75353;BMP280;76704;51.574;7.088;2024-03-08T21:21:34;52660.22;;;11.17
75353;BMP280;76704;51.574;7.088;2024-03-08T21:24:02;52586.22;;;11.07
75353;BMP280;76704;51.574;7.088;2024-03-08T21:26:34;52702.00;;;11.12
75353;BMP280;76704;51.574;7.088;2024-03-08T21:29:08;52550.94;;;10.98